OCN16Y BIKF-EDDM
Flight info
| Callsign | OCN16Y |
|---|---|
| Flight time | N/A |
| Altitude | 37000 |
| Route | OSKUM3A OSKUM DCT RATSU/N0436F370 DCT BARKU DCT SMOKI DCT UPNAL DCT ROLUM DCT TOPPA DCT AMGOD DCT PETIK P62 PAM DCT OTMEC DCT MISGO DCT DOJOH DCT DODEN/N0417F330 DCT TABUM DCT BOMBI T104 HAREM/N0378F270 T104 ROKIL ROKIL1A |
| Aircraft | A320/M-SDE2E3FGIJ1LORWXYZ/HB1 |
Departure
| Time | N/A |
|---|---|
| Airport | Keflavik International Airport (BIKF) |
Arrival
| Time | 2026-05-04 19:16 |
|---|---|
| Airport | Munich Airport (EDDM) |
| Time | Latitude | Longitude | Altitude | Speed | Heading |
|---|---|---|---|---|---|
| 2026-05-04 18:44 | 49.80215 | 9.15878 | 34960 ft | 434 kts | 142° |
| 2026-05-04 18:45 | 49.77973 | 9.19014 | 34968 ft | 435 kts | 142° |
| 2026-05-04 18:45 | 49.73475 | 9.25274 | 34971 ft | 435 kts | 142° |
| 2026-05-04 18:46 | 49.68976 | 9.31526 | 34975 ft | 435 kts | 142° |
| 2026-05-04 18:46 | 49.64477 | 9.37766 | 34977 ft | 435 kts | 142° |
| 2026-05-04 18:47 | 49.60372 | 9.43993 | 34977 ft | 439 kts | 135° |
| 2026-05-04 18:47 | 49.55944 | 9.51809 | 34961 ft | 439 kts | 135° |
| 2026-05-04 18:48 | 49.52061 | 9.58608 | 34949 ft | 438 kts | 135° |
| 2026-05-04 18:48 | 49.50051 | 9.62116 | 34587 ft | 433 kts | 136° |
| 2026-05-04 18:48 | 49.48066 | 9.65577 | 34159 ft | 430 kts | 136° |
| 2026-05-04 18:48 | 49.46060 | 9.69064 | 33926 ft | 443 kts | 136° |
| 2026-05-04 18:49 | 49.43986 | 9.72660 | 33481 ft | 453 kts | 136° |
| 2026-05-04 18:49 | 49.41898 | 9.76290 | 32927 ft | 453 kts | 135° |
| 2026-05-04 18:49 | 49.39816 | 9.79916 | 32378 ft | 450 kts | 135° |
| 2026-05-04 18:49 | 49.37755 | 9.83509 | 31829 ft | 447 kts | 135° |
| 2026-05-04 18:50 | 49.35702 | 9.87077 | 31316 ft | 444 kts | 135° |
| 2026-05-04 18:50 | 49.33660 | 9.90604 | 30783 ft | 441 kts | 136° |
| 2026-05-04 18:50 | 49.31622 | 9.94113 | 30274 ft | 441 kts | 136° |
| 2026-05-04 18:50 | 49.29567 | 9.97644 | 29719 ft | 444 kts | 136° |
| 2026-05-04 18:51 | 49.27516 | 10.01169 | 29233 ft | 443 kts | 136° |
| 2026-05-04 18:51 | 49.25471 | 10.04684 | 28733 ft | 441 kts | 136° |
| 2026-05-04 18:51 | 49.23435 | 10.08170 | 28256 ft | 442 kts | 136° |
| 2026-05-04 18:51 | 49.21364 | 10.11701 | 27759 ft | 446 kts | 136° |
| 2026-05-04 18:52 | 49.19291 | 10.15238 | 27277 ft | 445 kts | 135° |
| 2026-05-04 18:52 | 49.17236 | 10.18747 | 26758 ft | 443 kts | 135° |
| 2026-05-04 18:52 | 49.15187 | 10.22250 | 26221 ft | 440 kts | 135° |
| 2026-05-04 18:52 | 49.13146 | 10.25719 | 25722 ft | 438 kts | 135° |
| 2026-05-04 18:53 | 49.11086 | 10.29115 | 25212 ft | 434 kts | 136° |
| 2026-05-04 18:53 | 49.09011 | 10.32445 | 24997 ft | 433 kts | 137° |
| 2026-05-04 18:53 | 49.06953 | 10.35708 | 24991 ft | 432 kts | 137° |
| 2026-05-04 18:53 | 49.04837 | 10.39056 | 24985 ft | 432 kts | 137° |
| 2026-05-04 18:54 | 49.02757 | 10.42354 | 24970 ft | 431 kts | 137° |
| 2026-05-04 18:54 | 49.00698 | 10.45638 | 24452 ft | 426 kts | 136° |
| 2026-05-04 18:54 | 48.98702 | 10.48833 | 24043 ft | 417 kts | 136° |
| 2026-05-04 18:54 | 48.96756 | 10.51951 | 23560 ft | 399 kts | 136° |
| 2026-05-04 18:55 | 48.94851 | 10.54995 | 23011 ft | 394 kts | 136° |
| 2026-05-04 18:55 | 48.91098 | 10.60955 | 21927 ft | 386 kts | 137° |
| 2026-05-04 18:55 | 48.89243 | 10.63891 | 21395 ft | 383 kts | 137° |
| 2026-05-04 18:56 | 48.87402 | 10.66807 | 20883 ft | 381 kts | 136° |
| 2026-05-04 18:56 | 48.85578 | 10.69694 | 20383 ft | 378 kts | 136° |
| 2026-05-04 18:56 | 48.83758 | 10.72571 | 19881 ft | 376 kts | 136° |
| 2026-05-04 18:56 | 48.81951 | 10.75426 | 19402 ft | 373 kts | 136° |
| 2026-05-04 18:57 | 48.80156 | 10.78258 | 18926 ft | 371 kts | 136° |
| 2026-05-04 18:57 | 48.78372 | 10.81070 | 18503 ft | 368 kts | 137° |
| 2026-05-04 18:57 | 48.76603 | 10.83853 | 18033 ft | 365 kts | 137° |
| 2026-05-04 18:57 | 48.74845 | 10.86608 | 17557 ft | 362 kts | 137° |
| 2026-05-04 18:58 | 48.73100 | 10.89339 | 17100 ft | 359 kts | 137° |
| 2026-05-04 18:58 | 48.71368 | 10.92047 | 16916 ft | 358 kts | 137° |
| 2026-05-04 18:58 | 48.70217 | 10.93844 | 16941 ft | 358 kts | 137° |
| 2026-05-04 18:58 | 48.68479 | 10.96557 | 16952 ft | 360 kts | 137° |
| 2026-05-04 18:59 | 48.66737 | 10.99277 | 16950 ft | 360 kts | 137° |
| 2026-05-04 18:59 | 48.64955 | 11.01927 | 16946 ft | 359 kts | 140° |
| 2026-05-04 18:59 | 48.63106 | 11.04461 | 16946 ft | 358 kts | 142° |
| 2026-05-04 18:59 | 48.61223 | 11.06932 | 16925 ft | 357 kts | 142° |
| 2026-05-04 19:00 | 48.59363 | 11.09344 | 16781 ft | 347 kts | 142° |
| 2026-05-04 19:00 | 48.57566 | 11.11681 | 16650 ft | 335 kts | 142° |
| 2026-05-04 19:00 | 48.55817 | 11.13972 | 16520 ft | 325 kts | 142° |
| 2026-05-04 19:00 | 48.54150 | 11.16172 | 16302 ft | 318 kts | 142° |
| 2026-05-04 19:01 | 48.52507 | 11.18343 | 16001 ft | 315 kts | 142° |
| 2026-05-04 19:01 | 48.50866 | 11.20518 | 15680 ft | 312 kts | 142° |
| 2026-05-04 19:01 | 48.49237 | 11.22676 | 15360 ft | 310 kts | 142° |
| 2026-05-04 19:01 | 48.47621 | 11.24821 | 15043 ft | 308 kts | 142° |
| 2026-05-04 19:02 | 48.46017 | 11.26949 | 14727 ft | 306 kts | 142° |
| 2026-05-04 19:02 | 48.44451 | 11.29108 | 14397 ft | 306 kts | 137° |
| 2026-05-04 19:02 | 48.43172 | 11.31685 | 14085 ft | 310 kts | 123° |
| 2026-05-04 19:02 | 48.42308 | 11.34664 | 13777 ft | 313 kts | 110° |
| 2026-05-04 19:03 | 48.41915 | 11.37894 | 13432 ft | 316 kts | 97° |
| 2026-05-04 19:03 | 48.42022 | 11.41203 | 13071 ft | 318 kts | 85° |
| 2026-05-04 19:03 | 48.42298 | 11.44505 | 12703 ft | 317 kts | 86° |
| 2026-05-04 19:03 | 48.42562 | 11.47793 | 12364 ft | 315 kts | 86° |
| 2026-05-04 19:04 | 48.42818 | 11.51060 | 12022 ft | 314 kts | 86° |
| 2026-05-04 19:04 | 48.43070 | 11.54316 | 11675 ft | 312 kts | 86° |
| 2026-05-04 19:04 | 48.43321 | 11.57550 | 11330 ft | 311 kts | 86° |
| 2026-05-04 19:04 | 48.43574 | 11.60774 | 10984 ft | 309 kts | 86° |
| 2026-05-04 19:05 | 48.43826 | 11.63987 | 10633 ft | 308 kts | 86° |
| 2026-05-04 19:05 | 48.44075 | 11.67180 | 10283 ft | 306 kts | 86° |
| 2026-05-04 19:05 | 48.44322 | 11.70348 | 9936 ft | 304 kts | 86° |
| 2026-05-04 19:05 | 48.44568 | 11.73509 | 9599 ft | 301 kts | 85° |
| 2026-05-04 19:06 | 48.44811 | 11.76618 | 9274 ft | 297 kts | 85° |
| 2026-05-04 19:06 | 48.45047 | 11.79695 | 8908 ft | 295 kts | 85° |
| 2026-05-04 19:06 | 48.45281 | 11.82781 | 8390 ft | 296 kts | 85° |
| 2026-05-04 19:06 | 48.45512 | 11.85824 | 7865 ft | 289 kts | 85° |
| 2026-05-04 19:07 | 48.45740 | 11.88813 | 7255 ft | 285 kts | 85° |
| 2026-05-04 19:07 | 48.45962 | 11.91775 | 6765 ft | 283 kts | 85° |
| 2026-05-04 19:07 | 48.46181 | 11.94699 | 6307 ft | 280 kts | 84° |
| 2026-05-04 19:07 | 48.46398 | 11.97600 | 5845 ft | 276 kts | 84° |
| 2026-05-04 19:08 | 48.46611 | 12.00455 | 5304 ft | 273 kts | 84° |
| 2026-05-04 19:08 | 48.46822 | 12.03283 | 5024 ft | 269 kts | 84° |
| 2026-05-04 19:08 | 48.47029 | 12.06052 | 5000 ft | 270 kts | 84° |
| 2026-05-04 19:08 | 48.47239 | 12.08865 | 4999 ft | 270 kts | 84° |
| 2026-05-04 19:09 | 48.47447 | 12.11677 | 4999 ft | 270 kts | 84° |
| 2026-05-04 19:09 | 48.47633 | 12.14493 | 4929 ft | 268 kts | 89° |
| 2026-05-04 19:09 | 48.47259 | 12.17180 | 4644 ft | 259 kts | 118° |
| 2026-05-04 19:09 | 48.46103 | 12.19128 | 4514 ft | 246 kts | 148° |
| 2026-05-04 19:10 | 48.44547 | 12.20023 | 4388 ft | 235 kts | 170° |
| 2026-05-04 19:10 | 48.42951 | 12.20049 | 4240 ft | 227 kts | 189° |
| 2026-05-04 19:10 | 48.41471 | 12.19292 | 4042 ft | 224 kts | 209° |
| 2026-05-04 19:10 | 48.40252 | 12.17848 | 3978 ft | 222 kts | 229° |
| 2026-05-04 19:11 | 48.39438 | 12.15966 | 4009 ft | 209 kts | 247° |
| 2026-05-04 19:11 | 48.39065 | 12.13961 | 4009 ft | 194 kts | 264° |
| 2026-05-04 19:11 | 48.38918 | 12.11971 | 4003 ft | 190 kts | 263° |
| 2026-05-04 19:11 | 48.38775 | 12.10007 | 4004 ft | 188 kts | 263° |
| 2026-05-04 19:12 | 48.38632 | 12.08058 | 4005 ft | 188 kts | 263° |
| 2026-05-04 19:12 | 48.38343 | 12.04154 | 4006 ft | 188 kts | 263° |
| 2026-05-04 19:12 | 48.38198 | 12.02202 | 3970 ft | 188 kts | 263° |
| 2026-05-04 19:13 | 48.38052 | 12.00246 | 3792 ft | 188 kts | 263° |
| 2026-05-04 19:13 | 48.37907 | 11.98301 | 3583 ft | 187 kts | 263° |
| 2026-05-04 19:13 | 48.37762 | 11.96365 | 3350 ft | 186 kts | 264° |
| 2026-05-04 19:13 | 48.37617 | 11.94430 | 3106 ft | 183 kts | 264° |
| 2026-05-04 19:14 | 48.37481 | 11.92625 | 2859 ft | 165 kts | 263° |
| 2026-05-04 19:14 | 48.37357 | 11.90972 | 2653 ft | 155 kts | 264° |
| 2026-05-04 19:14 | 48.37238 | 11.89390 | 2451 ft | 151 kts | 264° |
| 2026-05-04 19:14 | 48.37119 | 11.87811 | 2248 ft | 148 kts | 264° |
| 2026-05-04 19:15 | 48.37006 | 11.86329 | 2045 ft | 144 kts | 264° |
| 2026-05-04 19:15 | 48.36893 | 11.84838 | 1869 ft | 143 kts | 265° |
| 2026-05-04 19:15 | 48.36777 | 11.83361 | 1677 ft | 141 kts | 266° |
| 2026-05-04 19:15 | 48.36671 | 11.81913 | 1513 ft | 141 kts | 265° |
| 2026-05-04 19:16 | 48.36583 | 11.80630 | 1486 ft | 97 kts | 263° |
| 2026-05-04 19:16 | 48.36525 | 11.79986 | 1478 ft | 49 kts | 264° |
| 2026-05-04 19:16 | 48.36399 | 11.79594 | 1480 ft | 29 kts | 234° |
| 2026-05-04 19:16 | 48.36310 | 11.79413 | 1475 ft | 12 kts | 234° |
| 2026-05-04 19:17 | 48.36289 | 11.79369 | 1478 ft | 0 kts | 232° |
| 2026-05-04 19:17 | 48.36278 | 11.79348 | 1479 ft | 6 kts | 232° |
| 2026-05-04 19:17 | 48.36229 | 11.79299 | 1481 ft | 12 kts | 196° |
| 2026-05-04 19:18 | 48.36133 | 11.79309 | 1472 ft | 15 kts | 174° |
| 2026-05-04 19:18 | 48.36040 | 11.79324 | 1483 ft | 9 kts | 172° |
| 2026-05-04 19:18 | 48.35981 | 11.79334 | 1486 ft | 8 kts | 175° |
| 2026-05-04 19:18 | 48.35923 | 11.79355 | 1477 ft | 10 kts | 150° |
| 2026-05-04 19:19 | 48.35863 | 11.79373 | 1478 ft | 8 kts | 209° |
| 2026-05-04 19:19 | 48.35854 | 11.79302 | 1482 ft | 6 kts | 264° |
| 2026-05-04 19:19 | 48.35852 | 11.79276 | 1485 ft | 0 kts | 264° |
| 2026-05-04 19:20 | 48.35851 | 11.79257 | 1476 ft | 2 kts | 264° |
| 2026-05-04 19:20 | 48.35850 | 11.79248 | 1476 ft | 0 kts | 264° |